createdAt,value
2017-11-28T00:00:46.138Z,100318.72
2017-11-28T00:02:49.470Z,100316.44
2017-11-28T00:04:52.806Z,100313.32
2017-11-28T00:06:56.503Z,100311.13
2017-11-28T00:08:59.785Z,100316.12
2017-11-28T00:11:03.075Z,100305.44
2017-11-28T00:13:06.418Z,100300.04
2017-11-28T00:15:09.722Z,100300.04
2017-11-28T00:17:13.021Z,100303.67
2017-11-28T00:19:16.446Z,100302.84
2017-11-28T00:21:19.750Z,100306.89
2017-11-28T00:23:23.064Z,100305.95
2017-11-28T00:25:26.521Z,100296.09
2017-11-28T00:27:29.910Z,100289.84
2017-11-28T00:29:33.205Z,100292.55
2017-11-28T00:31:36.605Z,100287.14
2017-11-28T00:33:39.963Z,100290.36
2017-11-28T00:35:43.245Z,100294.83
2017-11-28T00:37:46.625Z,100293.16
2017-11-28T00:39:50.058Z,100293.70
2017-11-28T00:41:53.336Z,100291.94
2017-11-28T00:43:56.682Z,100300.55
2017-11-28T00:46:00.054Z,100287.05
2017-11-28T00:48:03.336Z,100281.23
2017-11-28T00:50:06.652Z,100282.16
2017-11-28T00:52:09.996Z,100281.74
2017-11-28T00:54:13.301Z,100280.30
2017-11-28T00:56:16.621Z,100276.25
2017-11-28T00:58:19.933Z,100274.48
2017-11-28T01:00:23.357Z,100281.33
2017-11-28T01:02:26.679Z,100281.23
2017-11-28T01:04:29.981Z,100280.39
2017-11-28T01:06:33.431Z,100287.56
2017-11-28T01:08:36.853Z,100276.86
2017-11-28T01:10:40.154Z,100272.80
2017-11-28T01:12:43.544Z,100279.97
2017-11-28T01:14:46.950Z,100286.31
2017-11-28T01:16:50.344Z,100281.94
2017-11-28T01:18:53.715Z,100275.19
2017-11-28T01:20:57.159Z,100281.84
2017-11-28T01:23:00.501Z,100281.42
2017-11-28T01:25:03.810Z,100284.63
2017-11-28T01:27:07.116Z,100284.13
2017-11-28T01:29:10.412Z,100279.78
2017-11-28T01:31:13.797Z,100277.88
2017-11-28T01:33:17.319Z,100279.78
2017-11-28T01:35:20.667Z,100277.50
2017-11-28T01:37:24.103Z,100289.74
2017-11-28T01:39:27.413Z,100287.56
2017-11-28T01:41:30.715Z,100278.53
2017-11-28T01:43:34.049Z,100279.88
2017-11-28T01:45:37.460Z,100276.34
2017-11-28T01:47:40.857Z,100276.76
2017-11-28T01:49:44.354Z,100272.80
2017-11-28T01:51:47.712Z,100269.17
2017-11-28T01:53:51.066Z,100278.72
2017-11-28T01:55:54.528Z,100280.48
2017-11-28T01:57:57.844Z,100272.90
2017-11-28T02:00:01.276Z,100268.84
2017-11-28T02:02:04.629Z,100274.66
2017-11-28T02:04:07.964Z,100273.31
2017-11-28T02:06:11.278Z,100273.83
2017-11-28T02:08:14.581Z,100274.25
2017-11-28T02:10:18.053Z,100271.13
2017-11-28T02:12:21.368Z,100257.76
2017-11-28T02:14:24.663Z,100263.16
2017-11-28T02:16:28.064Z,100261.81
2017-11-28T02:18:31.357Z,100261.39
2017-11-28T02:20:34.651Z,100251.01
2017-11-28T02:22:38.010Z,100252.45
2017-11-28T02:24:41.318Z,100253.80
2017-11-28T02:26:44.725Z,100247.98
2017-11-28T02:28:48.184Z,100251.62
2017-11-28T02:30:51.542Z,100243.52
2017-11-28T02:32:54.975Z,100242.17
2017-11-28T02:34:58.378Z,100240.40
2017-11-28T02:37:01.760Z,100229.09
2017-11-28T02:39:05.110Z,100234.16
2017-11-28T02:41:15.304Z,100229.18
2017-11-28T02:43:18.782Z,100221.18
2017-11-28T02:45:22.174Z,100215.27
2017-11-28T02:47:25.603Z,100211.34
2017-11-28T02:49:34.522Z,100206.23
2017-11-28T02:51:37.980Z,100202.70
2017-11-28T02:53:41.317Z,100204.05
2017-11-28T02:55:48.342Z,100205.81
2017-11-28T02:57:51.621Z,100204.17
2017-11-28T02:59:57.452Z,100214.43
2017-11-28T03:02:01.457Z,100223.49
2017-11-28T03:04:04.785Z,100223.08
2017-11-28T03:06:08.132Z,100224.01
2017-11-28T03:08:11.509Z,100225.77
2017-11-28T03:12:49.891Z,100223.59
2017-11-28T03:14:53.797Z,100224.10
2017-11-28T03:16:57.129Z,100224.10
2017-11-28T03:21:34.236Z,100216.52
2017-11-28T03:24:00.144Z,100212.05
2017-11-28T03:26:03.466Z,100204.37
2017-11-28T03:30:56.877Z,100204.69
2017-11-28T03:33:00.245Z,100205.63
2017-11-28T03:35:03.559Z,100209.16
2017-11-28T03:37:06.855Z,100210.19
2017-11-28T03:39:10.233Z,100207.91
2017-11-28T03:41:13.525Z,100201.98
2017-11-28T03:43:16.823Z,100198.88
2017-11-28T03:47:52.053Z,100198.45
2017-11-28T03:49:55.399Z,100201.16
2017-11-28T03:51:58.716Z,100204.27
2017-11-28T03:54:02.082Z,100198.03
2017-11-28T03:56:05.410Z,100196.69
2017-11-28T03:58:08.773Z,100203.34
2017-11-28T04:00:12.122Z,100204.27
2017-11-28T04:02:15.402Z,100206.55
2017-11-28T04:04:18.747Z,100204.69
2017-11-28T04:06:22.108Z,100209.99
2017-11-28T04:08:25.469Z,100207.39
2017-11-28T04:10:28.801Z,100206.45
2017-11-28T04:12:32.263Z,100199.29
2017-11-28T04:14:36.492Z,100200.55
2017-11-28T04:16:39.848Z,100203.76
2017-11-28T04:18:43.193Z,100208.83
2017-11-28T04:20:46.537Z,100212.79
2017-11-28T04:22:49.894Z,100208.42
2017-11-28T04:24:53.245Z,100205.72
2017-11-28T04:26:56.603Z,100199.80
2017-11-28T04:29:00.037Z,100207.06
2017-11-28T04:31:03.321Z,100208.73
2017-11-28T04:33:06.711Z,100211.02
2017-11-28T04:35:10.119Z,100202.50
2017-11-28T04:37:13.536Z,100207.48
2017-11-28T04:39:16.892Z,100210.70
2017-11-28T04:41:20.277Z,100212.98
2017-11-28T04:43:23.695Z,100208.09
2017-11-28T04:45:26.996Z,100206.65
2017-11-28T04:47:30.389Z,100200.32
2017-11-28T04:49:33.705Z,100194.08
2017-11-28T04:51:40.168Z,100203.53
2017-11-28T04:53:43.560Z,100197.20
2017-11-28T04:55:46.906Z,100200.41
2017-11-28T04:57:50.224Z,100199.19
2017-11-28T04:59:53.576Z,100207.16
2017-11-28T05:01:56.904Z,100204.47
2017-11-28T05:04:00.329Z,100205.39
2017-11-28T05:06:03.661Z,100200.00
2017-11-28T05:08:06.998Z,100199.19
2017-11-28T05:10:10.313Z,100200.13
2017-11-28T05:12:13.721Z,100205.81
2017-11-28T05:14:17.179Z,100204.59
2017-11-28T05:16:20.604Z,100199.19
2017-11-28T05:18:24.063Z,100196.08
2017-11-28T05:20:27.449Z,100192.95
2017-11-28T05:22:30.750Z,100191.19
2017-11-28T05:24:34.234Z,100199.70
2017-11-28T05:26:37.598Z,100195.66
2017-11-28T05:28:41.018Z,100198.88
2017-11-28T05:30:44.394Z,100195.66
2017-11-28T05:32:47.904Z,100195.75
2017-11-28T05:34:51.327Z,100198.45
2017-11-28T05:36:54.654Z,100197.94
2017-11-28T05:38:58.020Z,100199.29
2017-11-28T05:41:01.375Z,100205.63
2017-11-28T05:43:04.761Z,100204.78
2017-11-28T05:45:08.170Z,100205.63
2017-11-28T05:47:11.644Z,100210.59
2017-11-28T05:49:15.037Z,100210.19
2017-11-28T05:51:18.530Z,100217.34
2017-11-28T05:53:22.732Z,100217.86
2017-11-28T05:55:26.174Z,100216.00
2017-11-28T05:57:29.524Z,100220.05
2017-11-28T05:59:32.835Z,100225.03
2017-11-28T06:01:36.161Z,100222.33
2017-11-28T06:03:39.501Z,100225.96
2017-11-28T06:05:42.876Z,100225.96
2017-11-28T06:07:46.226Z,100224.09
2017-11-28T06:09:49.631Z,100229.50
2017-11-28T06:11:53.113Z,100228.66
2017-11-28T06:13:56.499Z,100233.64
2017-11-28T06:15:59.910Z,100231.36
2017-11-28T06:18:03.196Z,100237.18
2017-11-28T06:20:06.608Z,100233.22
2017-11-28T06:22:09.963Z,100234.58
2017-11-28T06:24:13.310Z,100231.88
2017-11-28T06:26:16.907Z,100237.27
2017-11-28T06:28:20.231Z,100239.97
2017-11-28T06:30:23.881Z,100239.05
2017-11-28T06:32:27.278Z,100237.79
2017-11-28T06:34:31.442Z,100244.12
2017-11-28T06:36:34.849Z,100242.25
2017-11-28T06:38:38.230Z,100250.35
2017-11-28T06:40:41.562Z,100255.33
2017-11-28T06:42:44.926Z,100254.91
2017-11-28T06:44:48.328Z,100257.52
2017-11-28T06:46:51.776Z,100251.28
2017-11-28T06:48:55.137Z,100249.00
2017-11-28T06:50:58.589Z,100256.17
2017-11-28T06:53:02.001Z,100251.70
2017-11-28T06:55:05.311Z,100263.34
2017-11-28T06:57:08.652Z,100263.75
2017-11-28T06:59:11.979Z,100265.94
2017-11-28T07:01:15.437Z,100261.89
2017-11-28T07:03:18.881Z,100258.27
2017-11-28T07:05:22.170Z,100260.03
2017-11-28T07:07:25.675Z,100267.20
2017-11-28T07:09:28.979Z,100265.84
2017-11-28T07:11:32.447Z,100263.98
2017-11-28T07:13:35.793Z,100268.55
2017-11-28T07:15:39.174Z,100266.69
2017-11-28T07:17:42.669Z,100264.91
2017-11-28T07:19:45.951Z,100269.77
2017-11-28T07:21:49.361Z,100268.84
2017-11-28T07:23:52.658Z,100271.34
2017-11-28T07:25:55.972Z,100271.67
2017-11-28T07:27:59.313Z,100279.12
2017-11-28T07:30:02.709Z,100281.13
2017-11-28T07:32:06.059Z,100282.67
2017-11-28T07:34:09.386Z,100284.34
2017-11-28T07:36:12.769Z,100279.14
2017-11-28T07:38:16.085Z,100284.25
2017-11-28T07:40:19.523Z,100283.51
2017-11-28T07:42:22.981Z,100288.17
2017-11-28T07:44:26.290Z,100288.91
2017-11-28T07:46:29.734Z,100287.34
2017-11-28T07:48:33.057Z,100290.27
2017-11-28T07:50:36.352Z,100295.45
2017-11-28T07:52:39.765Z,100292.97
2017-11-28T07:54:43.146Z,100290.47
2017-11-28T07:56:46.466Z,100288.09
2017-11-28T07:58:49.959Z,100285.20
2017-11-28T08:00:53.439Z,100291.63
2017-11-28T08:02:56.771Z,100296.94
2017-11-28T08:05:00.102Z,100295.27
2017-11-28T08:07:03.396Z,100293.81
2017-11-28T08:09:06.913Z,100296.71
2017-11-28T08:11:10.368Z,100292.56
2017-11-28T08:13:13.800Z,100304.49
2017-11-28T08:15:17.169Z,100305.23
2017-11-28T08:17:21.446Z,100302.95
2017-11-28T08:19:25.014Z,100307.00
2017-11-28T08:21:28.384Z,100308.03
2017-11-28T08:23:32.900Z,100309.19
2017-11-28T08:25:36.235Z,100316.13
2017-11-28T08:27:39.727Z,100314.08
2017-11-28T08:29:43.078Z,100309.28
2017-11-28T08:31:46.467Z,100309.89
2017-11-28T08:33:51.220Z,100302.11
2017-11-28T08:35:54.538Z,100308.03
2017-11-28T08:37:58.032Z,100307.41
2017-11-28T08:40:01.338Z,100311.98
2017-11-28T08:42:04.782Z,100308.95
2017-11-28T08:44:08.178Z,100312.20
2017-11-28T08:46:11.748Z,100311.27
2017-11-28T08:48:15.052Z,100314.26
2017-11-28T08:50:18.630Z,100315.71
2017-11-28T08:52:21.921Z,100310.11
2017-11-28T08:54:25.251Z,100318.83
2017-11-28T08:56:28.571Z,100314.08
2017-11-28T08:58:31.926Z,100317.29
2017-11-28T09:00:35.244Z,100317.06
2017-11-28T09:02:38.879Z,100306.07
2017-11-28T09:04:42.388Z,100308.45
2017-11-28T09:06:45.867Z,100312.73
2017-11-28T09:08:49.301Z,100311.98
2017-11-28T09:10:52.755Z,100311.37
2017-11-28T09:12:56.247Z,100303.05
2017-11-28T09:14:59.592Z,100300.05
2017-11-28T09:17:02.934Z,100299.41
2017-11-28T09:19:06.334Z,100299.67
2017-11-28T09:21:09.756Z,100304.95
2017-11-28T09:23:13.051Z,100307.36
2017-11-28T09:25:16.445Z,100299.44
2017-11-28T09:27:19.854Z,100310.48
2017-11-28T09:29:23.279Z,100312.95
2017-11-28T09:31:26.605Z,100312.34
2017-11-28T09:33:29.913Z,100316.69
2017-11-28T09:35:33.234Z,100319.61
2017-11-28T09:37:36.684Z,100313.05
2017-11-28T09:39:40.070Z,100316.91
2017-11-28T09:41:43.526Z,100313.05
2017-11-28T09:43:46.851Z,100311.59
2017-11-28T09:45:50.186Z,100305.06
2017-11-28T09:47:53.579Z,100305.34
2017-11-28T09:49:56.944Z,100306.50
2017-11-28T09:52:00.250Z,100307.22
2017-11-28T09:54:03.675Z,100312.42
2017-11-28T09:56:07.014Z,100309.20
2017-11-28T09:58:10.403Z,100315.73
2017-11-28T10:00:14.679Z,100317.41
2017-11-28T10:02:18.005Z,100312.74
2017-11-28T10:04:21.343Z,100316.57
2017-11-28T10:06:24.642Z,100317.73
2017-11-28T10:08:28.490Z,100315.31
2017-11-28T10:10:31.829Z,100312.93
2017-11-28T10:12:35.202Z,100304.63
2017-11-28T10:14:38.514Z,100308.03
2017-11-28T10:16:41.852Z,100304.30
2017-11-28T10:18:45.155Z,100304.61
2017-11-28T10:20:48.586Z,100304.39
2017-11-28T10:22:52.095Z,100304.61
2017-11-28T10:24:55.598Z,100299.49
2017-11-28T10:26:58.920Z,100297.52
2017-11-28T10:29:02.251Z,100301.38
2017-11-28T10:31:05.604Z,100298.87
2017-11-28T10:33:09.040Z,100292.52
2017-11-28T10:35:12.327Z,100294.06
2017-11-28T10:37:15.688Z,100289.49
2017-11-28T10:39:19.111Z,100290.75
2017-11-28T10:41:22.395Z,100291.48
2017-11-28T10:43:25.713Z,100289.06
2017-11-28T10:45:29.080Z,100287.72
2017-11-28T10:47:32.474Z,100288.45
2017-11-28T10:49:35.859Z,100283.78
2017-11-28T10:51:39.205Z,100278.66
2017-11-28T10:53:42.577Z,100283.55
2017-11-28T10:55:45.877Z,100273.89
2017-11-28T10:57:49.236Z,100272.41
2017-11-28T10:59:52.544Z,100276.78
2017-11-28T11:01:55.868Z,100274.91
2017-11-28T11:03:59.235Z,100277.94
2017-11-28T11:06:02.551Z,100276.45
2017-11-28T11:08:05.991Z,100275.94
2017-11-28T11:10:09.330Z,100271.78
2017-11-28T11:12:12.626Z,100269.48
2017-11-28T11:14:15.951Z,100265.33
2017-11-28T11:16:19.394Z,100266.97
2017-11-28T11:18:22.677Z,100266.88
2017-11-28T11:20:26.039Z,100272.70
2017-11-28T11:22:29.381Z,100265.84
2017-11-28T11:24:32.730Z,100263.03
2017-11-28T11:26:36.100Z,100260.84
2017-11-28T11:28:39.541Z,100256.66
2017-11-28T11:30:42.986Z,100258.42
2017-11-28T11:32:46.303Z,100256.66
2017-11-28T11:34:49.704Z,100253.95
2017-11-28T11:36:53.261Z,100248.02
2017-11-28T11:38:56.557Z,100254.37
2017-11-28T11:40:59.908Z,100252.60
2017-11-28T11:43:03.203Z,100250.73
2017-11-28T11:45:06.496Z,100241.27
2017-11-28T11:47:09.853Z,100244.38
2017-11-28T11:49:13.293Z,100242.61
2017-11-28T11:51:16.653Z,100241.68
2017-11-28T11:53:20.010Z,100238.04
2017-11-28T11:55:23.306Z,100234.92
2017-11-28T11:57:26.609Z,100239.39
2017-11-28T11:59:29.958Z,100239.39
2017-11-28T12:01:33.273Z,100230.77
2017-11-28T12:03:36.560Z,100226.28
2017-11-28T12:05:39.928Z,100232.11
2017-11-28T12:07:43.250Z,100227.64
2017-11-28T12:09:47.494Z,100225.77
2017-11-28T12:11:50.916Z,100224.52
2017-11-28T12:13:54.301Z,100228.47
2017-11-28T12:15:58.533Z,100226.70
2017-11-28T12:18:01.914Z,100222.12
2017-11-28T12:20:05.262Z,100215.05
2017-11-28T12:22:08.610Z,100222.55
2017-11-28T12:24:12.049Z,100216.81
2017-11-28T12:26:15.469Z,100211.41
2017-11-28T12:28:18.766Z,100219.94
2017-11-28T12:30:22.167Z,100215.78
2017-11-28T12:32:25.587Z,100218.48
2017-11-28T12:34:28.947Z,100217.66
2017-11-28T12:36:32.441Z,100216.20
2017-11-28T12:38:35.937Z,100215.78
2017-11-28T12:40:39.263Z,100208.70
2017-11-28T12:42:42.602Z,100216.30
2017-11-28T12:44:45.984Z,100207.35
2017-11-28T12:46:49.382Z,100210.05
2017-11-28T12:48:52.722Z,100201.84
2017-11-28T12:50:56.027Z,100206.41
2017-11-28T12:52:59.317Z,100207.87
2017-11-28T12:55:02.709Z,100204.33
2017-11-28T12:57:06.057Z,100202.69
2017-11-28T12:59:09.385Z,100197.89
2017-11-28T13:01:12.718Z,100200.09
2017-11-28T13:03:16.081Z,100200.19
2017-11-28T13:05:19.518Z,100199.77
2017-11-28T13:07:22.851Z,100199.48
2017-11-28T13:09:26.195Z,100189.88
2017-11-28T13:11:29.590Z,100195.81
2017-11-28T13:13:32.924Z,100190.02
2017-11-28T13:15:36.277Z,100187.83
2017-11-28T13:17:39.662Z,100183.88
2017-11-28T13:19:43.421Z,100191.05
2017-11-28T13:21:46.767Z,100184.80
2017-11-28T13:23:50.166Z,100182.72
2017-11-28T13:25:53.514Z,100193.95
2017-11-28T13:27:56.940Z,100189.90
2017-11-28T13:30:00.288Z,100188.34
2017-11-28T13:32:03.758Z,100184.91
2017-11-28T13:34:07.138Z,100186.67
2017-11-28T13:36:10.447Z,100188.12
2017-11-28T13:38:13.856Z,100182.72
2017-11-28T13:40:17.228Z,100183.14
2017-11-28T13:42:20.568Z,100179.31
2017-11-28T13:44:23.892Z,100182.85
2017-11-28T13:46:27.208Z,100180.66
2017-11-28T13:48:30.571Z,100171.20
2017-11-28T13:50:34.040Z,100168.49
2017-11-28T13:52:37.362Z,100168.17
2017-11-28T13:54:40.714Z,100172.23
2017-11-28T13:56:44.092Z,100177.55
2017-11-28T13:58:47.520Z,100180.77
2017-11-28T14:00:50.846Z,100177.23
2017-11-28T14:02:54.283Z,100182.22
2017-11-28T14:04:57.568Z,100184.82
2017-11-28T14:07:00.866Z,100180.03
2017-11-28T14:09:04.256Z,100173.69
2017-11-28T14:11:07.538Z,100180.45
2017-11-28T14:13:11.761Z,100181.00
2017-11-28T14:15:15.094Z,100181.52
2017-11-28T14:17:19.461Z,100177.46
2017-11-28T14:19:22.744Z,100186.51
2017-11-28T14:21:31.479Z,100183.80
2017-11-28T14:23:40.525Z,100182.45
2017-11-28T14:25:44.337Z,100185.25
2017-11-28T14:30:40.848Z,100185.87
2017-11-28T14:32:52.637Z,100183.58
2017-11-28T14:35:00.454Z,100177.76
2017-11-28T14:37:03.746Z,100179.66
2017-11-28T14:39:10.335Z,100177.99
2017-11-28T14:41:14.516Z,100176.13
2017-11-28T14:45:56.295Z,100174.45
2017-11-28T14:47:59.641Z,100179.45
2017-11-28T14:50:02.926Z,100177.67
2017-11-28T14:52:07.292Z,100179.45
2017-11-28T14:57:03.546Z,100173.20
2017-11-28T15:01:49.978Z,100173.84
2017-11-28T15:03:59.272Z,100167.29
2017-11-28T15:06:08.302Z,100170.83
2017-11-28T15:08:17.313Z,100170.83
2017-11-28T15:13:03.319Z,100170.61
2017-11-28T15:15:12.287Z,100172.80
2017-11-28T15:19:51.684Z,100169.91
2017-11-28T15:21:57.000Z,100169.91
2017-11-28T15:24:00.288Z,100169.59
2017-11-28T15:26:07.096Z,100165.95
2017-11-28T15:28:12.329Z,100163.77
2017-11-28T15:30:15.725Z,100170.94
2017-11-28T15:32:19.185Z,100168.23
2017-11-28T15:34:22.605Z,100170.53
2017-11-28T15:36:25.939Z,100168.47
2017-11-28T15:38:29.319Z,100167.53
2017-11-28T15:40:32.619Z,100159.01
2017-11-28T15:42:35.941Z,100163.87
2017-11-28T15:44:39.249Z,100162.13
2017-11-28T15:46:43.409Z,100162.00
2017-11-28T15:48:46.734Z,100161.06
2017-11-28T15:50:50.059Z,100168.23
2017-11-28T15:52:53.403Z,100167.30
2017-11-28T15:54:56.830Z,100168.66
2017-11-28T15:57:00.102Z,100158.26
2017-11-28T15:59:03.465Z,100168.66
2017-11-28T16:01:06.947Z,100166.37
2017-11-28T16:03:15.216Z,100171.36
2017-11-28T16:05:27.542Z,100174.48
2017-11-28T16:07:31.965Z,100173.64
2017-11-28T16:09:35.261Z,100175.83
2017-11-28T16:11:38.669Z,100173.23
2017-11-28T16:13:41.999Z,100174.90
2017-11-28T16:15:45.282Z,100179.89
2017-11-28T16:17:48.601Z,100171.26
2017-11-28T16:19:51.969Z,100173.13
2017-11-28T16:21:55.362Z,100173.55
2017-11-28T16:23:58.716Z,100176.25
2017-11-28T16:26:02.085Z,100174.38
2017-11-28T16:28:05.385Z,100170.74
2017-11-28T16:30:08.747Z,100169.91
2017-11-28T16:32:12.112Z,100167.62
2017-11-28T16:34:15.637Z,100171.16
2017-11-28T16:36:19.060Z,100169.08
2017-11-28T16:38:22.495Z,100166.27
2017-11-28T16:40:25.833Z,100164.92
2017-11-28T16:42:29.141Z,100158.16
2017-11-28T16:44:32.730Z,100154.62
2017-11-28T16:46:36.164Z,100156.28
2017-11-28T16:48:39.625Z,100156.28
2017-11-28T16:50:44.050Z,100153.03
2017-11-28T16:52:47.793Z,100159.41
2017-11-28T16:54:51.110Z,100157.64
2017-11-28T16:56:54.493Z,100152.23
2017-11-28T16:58:57.777Z,100158.05
2017-11-28T17:01:01.135Z,100160.77
2017-11-28T17:03:04.461Z,100153.03
2017-11-28T17:05:07.859Z,100153.59
2017-11-28T17:07:11.212Z,100150.33
2017-11-28T17:09:14.552Z,100145.98
2017-11-28T17:11:17.890Z,100150.14
2017-11-28T17:13:21.213Z,100152.75
2017-11-28T17:15:24.527Z,100144.22
2017-11-28T17:17:27.963Z,100137.88
2017-11-28T17:19:31.326Z,100144.22
2017-11-28T17:21:34.658Z,100150.88
2017-11-28T17:23:37.957Z,100148.28
2017-11-28T17:25:41.276Z,100143.70
2017-11-28T17:27:44.664Z,100148.80
2017-11-28T17:29:47.951Z,100144.73
2017-11-28T17:31:51.279Z,100151.59
2017-11-28T17:33:54.688Z,100144.55
2017-11-28T17:35:58.112Z,100150.34
2017-11-28T17:38:01.442Z,100149.13
2017-11-28T17:40:04.847Z,100148.91
2017-11-28T17:42:08.157Z,100146.72
2017-11-28T17:44:11.550Z,100152.27
2017-11-28T17:46:14.881Z,100154.97
2017-11-28T17:48:18.168Z,100150.59
2017-11-28T17:50:21.554Z,100154.75
2017-11-28T17:52:24.943Z,100145.52
2017-11-28T17:54:28.296Z,100144.16
2017-11-28T17:56:31.649Z,100150.61
2017-11-28T17:58:34.929Z,100142.59
2017-11-28T18:00:38.264Z,100148.52
2017-11-28T18:02:41.662Z,100145.11
2017-11-28T18:04:44.981Z,100145.63
2017-11-28T18:06:48.276Z,100150.10
2017-11-28T18:08:51.903Z,100140.22
2017-11-28T18:10:55.438Z,100147.50
2017-11-28T18:12:58.854Z,100147.92
2017-11-28T18:15:02.274Z,100144.28
2017-11-28T18:17:05.672Z,100145.21
2017-11-28T18:19:09.167Z,100142.92
2017-11-28T18:21:12.649Z,100139.80
2017-11-28T18:23:15.946Z,100141.58
2017-11-28T18:25:19.283Z,100140.64
2017-11-28T18:27:22.626Z,100138.36
2017-11-28T18:29:25.930Z,100137.94
2017-11-28T18:31:29.292Z,100133.56
2017-11-28T18:33:32.702Z,100134.60
2017-11-28T18:35:36.027Z,100132.45
2017-11-28T18:37:39.426Z,100130.77
2017-11-28T18:39:42.742Z,100134.00
2017-11-28T18:41:46.044Z,100144.81
2017-11-28T18:43:49.606Z,100139.09
2017-11-28T18:45:52.921Z,100142.85
2017-11-28T18:47:56.263Z,100138.48
2017-11-28T18:49:59.675Z,100140.34
2017-11-28T18:52:02.986Z,100146.69
2017-11-28T18:54:06.282Z,100139.62
2017-11-28T18:56:09.644Z,100144.22
2017-11-28T18:58:13.014Z,100140.16
2017-11-28T19:00:16.349Z,100145.44
2017-11-28T19:02:19.645Z,100145.34
2017-11-28T19:04:23.040Z,100145.34
2017-11-28T19:06:26.482Z,100141.28
2017-11-28T19:08:29.787Z,100143.38
2017-11-28T19:10:33.098Z,100146.91
2017-11-28T19:12:36.411Z,100137.97
2017-11-28T19:14:39.707Z,100136.09
2017-11-28T19:16:43.013Z,100139.73
2017-11-28T19:18:46.384Z,100139.73
2017-11-28T19:20:49.728Z,100139.83
2017-11-28T19:22:53.047Z,100141.28
2017-11-28T19:24:56.430Z,100143.98
2017-11-28T19:26:59.850Z,100139.23
2017-11-28T19:29:03.220Z,100136.63
2017-11-28T19:31:06.551Z,100138.50
2017-11-28T19:33:09.962Z,100149.41
2017-11-28T19:35:13.306Z,100151.80
2017-11-28T19:37:16.863Z,100148.29
2017-11-28T19:39:20.458Z,100143.40
2017-11-28T19:41:23.835Z,100149.00
2017-11-28T19:43:27.678Z,100144.43
2017-11-28T19:45:31.149Z,100148.72
2017-11-28T19:47:34.954Z,100149.23
2017-11-28T19:49:39.364Z,100152.03
2017-11-28T19:51:43.278Z,100146.73
2017-11-28T19:53:46.721Z,100142.77
2017-11-28T19:55:50.047Z,100141.55
2017-11-28T19:57:53.350Z,100137.18
2017-11-28T19:59:57.115Z,100134.16
2017-11-28T20:02:00.534Z,100136.03
2017-11-28T20:04:03.818Z,100136.58
2017-11-28T20:06:08.464Z,100128.67
2017-11-28T20:08:12.046Z,100130.12
2017-11-28T20:10:15.351Z,100138.87
2017-11-28T20:12:18.676Z,100127.64
2017-11-28T20:14:22.058Z,100131.38
2017-11-28T20:16:25.346Z,100131.90
2017-11-28T20:18:28.801Z,100131.58
2017-11-28T20:20:32.134Z,100129.42
2017-11-28T20:22:35.449Z,100139.50
2017-11-28T20:24:38.821Z,100136.48
2017-11-28T20:26:42.237Z,100147.80
2017-11-28T20:28:45.650Z,100146.58
2017-11-28T20:30:49.042Z,100149.38
2017-11-28T20:32:52.326Z,100149.48
2017-11-28T20:34:55.630Z,100152.83
2017-11-28T20:36:58.968Z,100157.40
2017-11-28T20:39:02.286Z,100150.74
2017-11-28T20:41:05.625Z,100141.77
2017-11-28T20:43:09.131Z,100144.05
2017-11-28T20:45:12.538Z,100148.63
2017-11-28T20:47:15.850Z,100156.31
2017-11-28T20:49:24.874Z,100153.33
2017-11-28T20:51:28.184Z,100150.20
2017-11-28T20:53:31.489Z,100159.24
2017-11-28T20:55:34.829Z,100147.70
2017-11-28T20:57:38.125Z,100153.10
2017-11-28T20:59:41.558Z,100151.47
2017-11-28T21:01:44.858Z,100148.34
2017-11-28T21:03:48.164Z,100147.51
2017-11-28T21:05:51.516Z,100147.09
2017-11-28T21:07:54.819Z,100150.73
2017-11-28T21:09:58.121Z,100147.19
2017-11-28T21:12:01.435Z,100141.89
2017-11-28T21:14:04.788Z,100145.52
2017-11-28T21:16:08.097Z,100145.52
2017-11-28T21:18:11.429Z,100143.88
2017-11-28T21:20:14.762Z,100142.12
2017-11-28T21:22:18.058Z,100150.31
2017-11-28T21:24:21.530Z,100141.80
2017-11-28T21:26:24.906Z,100141.89
2017-11-28T21:28:28.228Z,100148.23
2017-11-28T21:30:31.627Z,100149.16
2017-11-28T21:32:34.939Z,100145.23
2017-11-28T21:34:38.233Z,100142.13
2017-11-28T21:36:41.650Z,100136.81
2017-11-28T21:38:45.000Z,100136.91
2017-11-28T21:40:48.356Z,100133.80
2017-11-28T21:42:51.866Z,100131.93
2017-11-28T21:44:55.225Z,100132.26
2017-11-28T21:46:58.634Z,100140.68
2017-11-28T21:49:02.077Z,100132.26
2017-11-28T21:51:05.392Z,100130.48
2017-11-28T21:53:08.777Z,100138.17
2017-11-28T21:55:12.147Z,100136.92
2017-11-28T21:57:15.505Z,100135.57
2017-11-28T21:59:19.030Z,100132.16
2017-11-28T22:01:22.358Z,100132.16
2017-11-28T22:03:25.872Z,100127.80
2017-11-28T22:05:29.261Z,100130.08
2017-11-28T22:07:32.602Z,100132.78
2017-11-28T22:09:35.930Z,100122.49
2017-11-28T22:11:39.234Z,100126.13
2017-11-28T22:13:42.627Z,100122.17
2017-11-28T22:15:46.033Z,100123.14
2017-11-28T22:17:49.408Z,100122.30
2017-11-28T22:19:52.768Z,100131.34
2017-11-28T22:21:56.193Z,100130.50
2017-11-28T22:23:59.526Z,100128.32
2017-11-28T22:26:02.821Z,100130.09
2017-11-28T22:28:06.149Z,100126.65
2017-11-28T22:30:09.473Z,100125.95
2017-11-28T22:32:12.782Z,100127.71
2017-11-28T22:34:16.234Z,100126.05
2017-11-28T22:36:19.512Z,100124.79
2017-11-28T22:38:22.916Z,100124.79
2017-11-28T22:40:26.215Z,100125.20
2017-11-28T22:42:29.538Z,100122.60
2017-11-28T22:44:32.925Z,100128.97
2017-11-28T22:46:36.255Z,100123.67
2017-11-28T22:48:39.657Z,100131.77
2017-11-28T22:50:43.061Z,100130.00
2017-11-28T22:52:46.408Z,100131.87
2017-11-28T22:54:49.717Z,100132.28
2017-11-28T22:56:53.136Z,100130.52
2017-11-28T22:58:56.517Z,100133.13
2017-11-28T23:00:59.829Z,100136.34
2017-11-28T23:03:03.215Z,100135.59
2017-11-28T23:05:06.565Z,100130.20
2017-11-28T23:07:09.930Z,100131.13
2017-11-28T23:09:13.317Z,100129.36
2017-11-28T23:11:16.655Z,100135.31
2017-11-28T23:13:20.065Z,100128.14
2017-11-28T23:15:23.387Z,100128.14
2017-11-28T23:17:26.847Z,100125.54
2017-11-28T23:19:30.121Z,100128.23
2017-11-28T23:21:33.523Z,100125.64
2017-11-28T23:23:36.925Z,100122.52
2017-11-28T23:25:40.253Z,100127.09
2017-11-28T23:27:43.546Z,100125.86
2017-11-28T23:29:46.937Z,100126.67
2017-11-28T23:31:50.385Z,100130.43
2017-11-28T23:33:53.777Z,100132.30
2017-11-28T23:35:57.169Z,100131.36
2017-11-28T23:38:00.489Z,100135.00
2017-11-28T23:40:03.845Z,100132.81
2017-11-28T23:42:07.150Z,100141.84
2017-11-28T23:44:10.535Z,100135.61
2017-11-28T23:46:13.868Z,100131.98
2017-11-28T23:48:17.318Z,100123.59
2017-11-28T23:50:20.600Z,100123.17
2017-11-28T23:52:24.001Z,100118.19
2017-11-28T23:54:27.334Z,100128.57
2017-11-28T23:56:30.676Z,100120.47